sensor_id;sensor_type;location;lat;lon;timestamp;temperature;humidity
41324;DHT22;27073;51.128;4.220;2022-08-06T00:01:46;18.20;95.20
41324;DHT22;27073;51.128;4.220;2022-08-06T00:04:12;18.20;95.40
41324;DHT22;27073;51.128;4.220;2022-08-06T00:06:37;18.10;95.60
41324;DHT22;27073;51.128;4.220;2022-08-06T00:09:03;18.10;95.80
41324;DHT22;27073;51.128;4.220;2022-08-06T00:11:29;17.90;96.10
41324;DHT22;27073;51.128;4.220;2022-08-06T00:13:54;18.00;96.40
41324;DHT22;27073;51.128;4.220;2022-08-06T00:16:20;18.00;96.30
41324;DHT22;27073;51.128;4.220;2022-08-06T00:18:46;17.90;96.10
41324;DHT22;27073;51.128;4.220;2022-08-06T00:21:11;17.80;96.60
41324;DHT22;27073;51.128;4.220;2022-08-06T00:23:37;17.90;96.80
41324;DHT22;27073;51.128;4.220;2022-08-06T00:26:03;17.90;96.80
41324;DHT22;27073;51.128;4.220;2022-08-06T00:28:28;17.90;96.70
41324;DHT22;27073;51.128;4.220;2022-08-06T00:30:54;17.90;96.90
41324;DHT22;27073;51.128;4.220;2022-08-06T00:33:20;17.90;97.00
41324;DHT22;27073;51.128;4.220;2022-08-06T00:35:45;18.00;96.90
41324;DHT22;27073;51.128;4.220;2022-08-06T00:38:11;18.00;96.90
41324;DHT22;27073;51.128;4.220;2022-08-06T00:40:37;18.00;97.00
41324;DHT22;27073;51.128;4.220;2022-08-06T00:43:04;17.90;96.60
41324;DHT22;27073;51.128;4.220;2022-08-06T00:45:31;17.70;97.10
41324;DHT22;27073;51.128;4.220;2022-08-06T00:47:57;17.60;97.20
41324;DHT22;27073;51.128;4.220;2022-08-06T00:50:23;17.40;97.70
41324;DHT22;27073;51.128;4.220;2022-08-06T00:52:48;17.50;98.00
41324;DHT22;27073;51.128;4.220;2022-08-06T00:55:14;17.40;97.90
41324;DHT22;27073;51.128;4.220;2022-08-06T00:57:40;17.40;97.80
41324;DHT22;27073;51.128;4.220;2022-08-06T01:00:07;17.40;98.00
41324;DHT22;27073;51.128;4.220;2022-08-06T01:02:33;17.40;98.10
41324;DHT22;27073;51.128;4.220;2022-08-06T01:04:59;17.20;98.40
41324;DHT22;27073;51.128;4.220;2022-08-06T01:07:25;17.30;98.30
41324;DHT22;27073;51.128;4.220;2022-08-06T01:09:51;17.30;98.30
41324;DHT22;27073;51.128;4.220;2022-08-06T01:12:17;17.30;98.20
41324;DHT22;27073;51.128;4.220;2022-08-06T01:14:43;17.20;98.50
41324;DHT22;27073;51.128;4.220;2022-08-06T01:17:21;17.30;98.50
41324;DHT22;27073;51.128;4.220;2022-08-06T01:20:02;17.20;98.80
41324;DHT22;27073;51.128;4.220;2022-08-06T01:28:01;17.00;99.20
41324;DHT22;27073;51.128;4.220;2022-08-06T01:30:37;17.10;99.30
41324;DHT22;27073;51.128;4.220;2022-08-06T01:33:26;17.10;99.00
41324;DHT22;27073;51.128;4.220;2022-08-06T01:35:58;16.90;99.00
41324;DHT22;27073;51.128;4.220;2022-08-06T01:38:58;17.00;98.90
41324;DHT22;27073;51.128;4.220;2022-08-06T01:41:19;16.90;99.20
41324;DHT22;27073;51.128;4.220;2022-08-06T01:44:17;16.90;99.20
41324;DHT22;27073;51.128;4.220;2022-08-06T01:46:47;16.90;99.20
41324;DHT22;27073;51.128;4.220;2022-08-06T01:49:18;16.80;99.00
41324;DHT22;27073;51.128;4.220;2022-08-06T01:51:45;16.80;99.20
41324;DHT22;27073;51.128;4.220;2022-08-06T01:54:14;16.80;99.10
41324;DHT22;27073;51.128;4.220;2022-08-06T01:56:41;16.70;99.10
41324;DHT22;27073;51.128;4.220;2022-08-06T01:59:10;16.70;99.20
41324;DHT22;27073;51.128;4.220;2022-08-06T02:01:38;16.70;99.20
41324;DHT22;27073;51.128;4.220;2022-08-06T02:04:05;16.70;99.40
41324;DHT22;27073;51.128;4.220;2022-08-06T02:06:33;16.70;99.70
41324;DHT22;27073;51.128;4.220;2022-08-06T02:09:04;16.70;99.60
41324;DHT22;27073;51.128;4.220;2022-08-06T02:11:34;16.70;99.50
41324;DHT22;27073;51.128;4.220;2022-08-06T02:14:01;16.70;99.50
41324;DHT22;27073;51.128;4.220;2022-08-06T02:16:33;16.70;99.70
41324;DHT22;27073;51.128;4.220;2022-08-06T02:19:02;16.70;99.60
41324;DHT22;27073;51.128;4.220;2022-08-06T02:21:29;16.70;99.60
41324;DHT22;27073;51.128;4.220;2022-08-06T02:23:56;16.60;99.60
41324;DHT22;27073;51.128;4.220;2022-08-06T02:26:24;16.50;99.50
41324;DHT22;27073;51.128;4.220;2022-08-06T02:28:53;16.60;99.90
41324;DHT22;27073;51.128;4.220;2022-08-06T02:31:21;16.60;99.50
41324;DHT22;27073;51.128;4.220;2022-08-06T02:33:47;16.70;99.60
41324;DHT22;27073;51.128;4.220;2022-08-06T02:36:18;16.80;99.50
41324;DHT22;27073;51.128;4.220;2022-08-06T02:39:15;16.70;99.80
41324;DHT22;27073;51.128;4.220;2022-08-06T02:41:43;16.70;99.70
41324;DHT22;27073;51.128;4.220;2022-08-06T02:44:39;16.70;99.80
41324;DHT22;27073;51.128;4.220;2022-08-06T02:47:16;16.70;99.60
41324;DHT22;27073;51.128;4.220;2022-08-06T02:49:46;16.60;99.90
41324;DHT22;27073;51.128;4.220;2022-08-06T02:52:15;16.50;99.70
41324;DHT22;27073;51.128;4.220;2022-08-06T02:54:50;16.40;99.80
41324;DHT22;27073;51.128;4.220;2022-08-06T02:57:31;16.30;99.90
41324;DHT22;27073;51.128;4.220;2022-08-06T03:00:03;16.40;99.90
41324;DHT22;27073;51.128;4.220;2022-08-06T03:02:31;16.30;99.90
41324;DHT22;27073;51.128;4.220;2022-08-06T03:05:00;16.20;99.90
41324;DHT22;27073;51.128;4.220;2022-08-06T03:07:28;16.30;99.90
41324;DHT22;27073;51.128;4.220;2022-08-06T03:09:56;16.20;99.90
41324;DHT22;27073;51.128;4.220;2022-08-06T03:12:24;16.20;99.90
41324;DHT22;27073;51.128;4.220;2022-08-06T03:14:52;16.20;99.90
41324;DHT22;27073;51.128;4.220;2022-08-06T03:17:19;16.10;99.90
41324;DHT22;27073;51.128;4.220;2022-08-06T03:19:45;16.10;99.90
41324;DHT22;27073;51.128;4.220;2022-08-06T03:22:13;16.30;99.90
41324;DHT22;27073;51.128;4.220;2022-08-06T03:24:40;16.30;99.90
41324;DHT22;27073;51.128;4.220;2022-08-06T03:27:08;16.40;99.90
41324;DHT22;27073;51.128;4.220;2022-08-06T03:29:37;16.40;99.90
41324;DHT22;27073;51.128;4.220;2022-08-06T03:32:04;16.40;99.90
41324;DHT22;27073;51.128;4.220;2022-08-06T03:34:31;16.30;99.90
41324;DHT22;27073;51.128;4.220;2022-08-06T03:37:00;16.40;99.90
41324;DHT22;27073;51.128;4.220;2022-08-06T03:39:27;16.40;99.90
41324;DHT22;27073;51.128;4.220;2022-08-06T03:41:55;16.40;99.90
41324;DHT22;27073;51.128;4.220;2022-08-06T03:44:21;16.30;99.90
41324;DHT22;27073;51.128;4.220;2022-08-06T03:46:58;16.30;99.90
41324;DHT22;27073;51.128;4.220;2022-08-06T03:49:30;16.20;99.90
41324;DHT22;27073;51.128;4.220;2022-08-06T03:52:00;16.20;99.90
41324;DHT22;27073;51.128;4.220;2022-08-06T03:54:33;16.20;99.90
41324;DHT22;27073;51.128;4.220;2022-08-06T03:57:06;16.30;99.90
41324;DHT22;27073;51.128;4.220;2022-08-06T03:59:34;16.30;99.90
41324;DHT22;27073;51.128;4.220;2022-08-06T04:02:02;16.20;99.90
41324;DHT22;27073;51.128;4.220;2022-08-06T04:04:30;16.20;99.90
41324;DHT22;27073;51.128;4.220;2022-08-06T04:06:58;16.30;99.90
41324;DHT22;27073;51.128;4.220;2022-08-06T04:09:25;16.40;99.90
41324;DHT22;27073;51.128;4.220;2022-08-06T04:11:53;16.40;99.90
41324;DHT22;27073;51.128;4.220;2022-08-06T04:14:19;16.50;99.90
41324;DHT22;27073;51.128;4.220;2022-08-06T04:16:45;16.40;99.90
41324;DHT22;27073;51.128;4.220;2022-08-06T04:19:12;16.40;99.90
41324;DHT22;27073;51.128;4.220;2022-08-06T04:21:39;16.50;99.90
41324;DHT22;27073;51.128;4.220;2022-08-06T04:24:05;16.50;99.90
41324;DHT22;27073;51.128;4.220;2022-08-06T04:26:31;16.50;99.90
41324;DHT22;27073;51.128;4.220;2022-08-06T04:28:59;16.50;99.90
41324;DHT22;27073;51.128;4.220;2022-08-06T04:31:27;16.50;99.90
41324;DHT22;27073;51.128;4.220;2022-08-06T04:33:54;16.50;99.90
41324;DHT22;27073;51.128;4.220;2022-08-06T04:36:23;16.40;99.90
41324;DHT22;27073;51.128;4.220;2022-08-06T04:38:49;16.40;99.90
41324;DHT22;27073;51.128;4.220;2022-08-06T04:41:15;16.50;99.90
41324;DHT22;27073;51.128;4.220;2022-08-06T04:43:41;16.50;99.90
41324;DHT22;27073;51.128;4.220;2022-08-06T04:46:08;16.50;99.90
41324;DHT22;27073;51.128;4.220;2022-08-06T04:48:35;16.40;99.90
41324;DHT22;27073;51.128;4.220;2022-08-06T04:51:04;16.40;99.90
41324;DHT22;27073;51.128;4.220;2022-08-06T04:53:38;16.40;99.90
41324;DHT22;27073;51.128;4.220;2022-08-06T04:56:06;16.40;99.90
41324;DHT22;27073;51.128;4.220;2022-08-06T04:58:33;16.50;99.90
41324;DHT22;27073;51.128;4.220;2022-08-06T05:00:59;16.40;99.90
41324;DHT22;27073;51.128;4.220;2022-08-06T05:03:24;16.50;99.90
41324;DHT22;27073;51.128;4.220;2022-08-06T05:08:22;16.60;99.90
41324;DHT22;27073;51.128;4.220;2022-08-06T05:10:54;16.70;99.90
41324;DHT22;27073;51.128;4.220;2022-08-06T05:13:23;16.80;99.90
41324;DHT22;27073;51.128;4.220;2022-08-06T05:15:53;16.90;99.90
41324;DHT22;27073;51.128;4.220;2022-08-06T05:18:25;16.80;99.90
41324;DHT22;27073;51.128;4.220;2022-08-06T05:20:53;16.90;99.90
41324;DHT22;27073;51.128;4.220;2022-08-06T05:23:36;16.90;99.90
41324;DHT22;27073;51.128;4.220;2022-08-06T05:26:03;17.00;99.90
41324;DHT22;27073;51.128;4.220;2022-08-06T05:28:30;16.90;99.90
41324;DHT22;27073;51.128;4.220;2022-08-06T05:30:56;17.00;99.90
41324;DHT22;27073;51.128;4.220;2022-08-06T05:33:30;16.90;99.90
41324;DHT22;27073;51.128;4.220;2022-08-06T05:36:00;17.00;99.90
41324;DHT22;27073;51.128;4.220;2022-08-06T05:38:27;17.10;99.90
41324;DHT22;27073;51.128;4.220;2022-08-06T05:40:53;17.20;99.90
41324;DHT22;27073;51.128;4.220;2022-08-06T05:43:20;17.30;99.90
41324;DHT22;27073;51.128;4.220;2022-08-06T05:45:49;17.50;99.90
41324;DHT22;27073;51.128;4.220;2022-08-06T05:48:17;17.50;99.90
41324;DHT22;27073;51.128;4.220;2022-08-06T05:50:56;17.60;99.90
41324;DHT22;27073;51.128;4.220;2022-08-06T05:53:28;17.60;99.90
41324;DHT22;27073;51.128;4.220;2022-08-06T05:55:58;17.50;99.90
41324;DHT22;27073;51.128;4.220;2022-08-06T05:58:47;17.50;99.90
41324;DHT22;27073;51.128;4.220;2022-08-06T06:01:13;17.60;99.90
41324;DHT22;27073;51.128;4.220;2022-08-06T06:03:41;17.60;99.90
41324;DHT22;27073;51.128;4.220;2022-08-06T06:06:08;17.60;99.90
41324;DHT22;27073;51.128;4.220;2022-08-06T06:08:35;17.60;99.90
41324;DHT22;27073;51.128;4.220;2022-08-06T06:11:03;17.60;99.90
41324;DHT22;27073;51.128;4.220;2022-08-06T06:13:29;17.70;99.90
41324;DHT22;27073;51.128;4.220;2022-08-06T06:19:36;17.90;99.90
41324;DHT22;27073;51.128;4.220;2022-08-06T06:24:51;18.10;99.90
41324;DHT22;27073;51.128;4.220;2022-08-06T06:30:30;18.30;99.90
41324;DHT22;27073;51.128;4.220;2022-08-06T06:33:36;18.40;99.90
41324;DHT22;27073;51.128;4.220;2022-08-06T06:36:16;18.40;99.90
41324;DHT22;27073;51.128;4.220;2022-08-06T06:41:42;17.80;99.90
41324;DHT22;27073;51.128;4.220;2022-08-06T06:44:23;17.70;99.90
41324;DHT22;27073;51.128;4.220;2022-08-06T06:49:47;17.80;99.90
41324;DHT22;27073;51.128;4.220;2022-08-06T06:54:48;18.00;99.90
41324;DHT22;27073;51.128;4.220;2022-08-06T06:57:20;18.20;99.90
41324;DHT22;27073;51.128;4.220;2022-08-06T06:59:51;18.50;99.90
41324;DHT22;27073;51.128;4.220;2022-08-06T07:02:24;18.60;99.90
41324;DHT22;27073;51.128;4.220;2022-08-06T07:04:52;18.70;99.90
41324;DHT22;27073;51.128;4.220;2022-08-06T07:07:20;18.60;99.90
41324;DHT22;27073;51.128;4.220;2022-08-06T07:09:46;18.70;99.90
41324;DHT22;27073;51.128;4.220;2022-08-06T07:12:15;18.90;99.90
41324;DHT22;27073;51.128;4.220;2022-08-06T07:14:42;19.00;99.90
41324;DHT22;27073;51.128;4.220;2022-08-06T07:17:09;19.10;99.90
41324;DHT22;27073;51.128;4.220;2022-08-06T07:19:36;19.20;99.90
41324;DHT22;27073;51.128;4.220;2022-08-06T07:22:04;19.10;99.90
41324;DHT22;27073;51.128;4.220;2022-08-06T07:24:33;19.20;99.90
41324;DHT22;27073;51.128;4.220;2022-08-06T07:27:00;19.20;99.90
41324;DHT22;27073;51.128;4.220;2022-08-06T07:29:27;19.10;99.60
41324;DHT22;27073;51.128;4.220;2022-08-06T07:31:55;18.90;99.90
41324;DHT22;27073;51.128;4.220;2022-08-06T07:34:22;19.00;99.90
41324;DHT22;27073;51.128;4.220;2022-08-06T07:36:54;19.10;99.90
41324;DHT22;27073;51.128;4.220;2022-08-06T07:39:30;19.10;99.70
41324;DHT22;27073;51.128;4.220;2022-08-06T07:42:00;19.00;99.90
41324;DHT22;27073;51.128;4.220;2022-08-06T07:44:28;19.00;99.60
41324;DHT22;27073;51.128;4.220;2022-08-06T07:46:58;19.00;99.60
41324;DHT22;27073;51.128;4.220;2022-08-06T07:49:29;19.10;99.20
41324;DHT22;27073;51.128;4.220;2022-08-06T07:51:56;19.30;99.30
41324;DHT22;27073;51.128;4.220;2022-08-06T07:54:23;19.10;99.40
41324;DHT22;27073;51.128;4.220;2022-08-06T07:56:51;19.20;99.40
41324;DHT22;27073;51.128;4.220;2022-08-06T07:59:18;19.40;98.80
41324;DHT22;27073;51.128;4.220;2022-08-06T08:01:44;19.40;98.90
41324;DHT22;27073;51.128;4.220;2022-08-06T08:04:10;19.40;99.30
41324;DHT22;27073;51.128;4.220;2022-08-06T08:06:59;19.50;98.60
41324;DHT22;27073;51.128;4.220;2022-08-06T08:09:26;19.60;98.40
41324;DHT22;27073;51.128;4.220;2022-08-06T08:11:53;19.60;98.20
41324;DHT22;27073;51.128;4.220;2022-08-06T08:14:21;19.50;99.00
41324;DHT22;27073;51.128;4.220;2022-08-06T08:16:48;19.40;98.80
41324;DHT22;27073;51.128;4.220;2022-08-06T08:19:27;19.10;98.40
41324;DHT22;27073;51.128;4.220;2022-08-06T08:22:02;19.20;98.70
41324;DHT22;27073;51.128;4.220;2022-08-06T08:24:29;19.30;98.90
41324;DHT22;27073;51.128;4.220;2022-08-06T08:26:56;19.60;98.50
41324;DHT22;27073;51.128;4.220;2022-08-06T08:29:22;19.70;98.30
41324;DHT22;27073;51.128;4.220;2022-08-06T08:31:48;19.90;98.10
41324;DHT22;27073;51.128;4.220;2022-08-06T08:34:14;20.10;97.40
41324;DHT22;27073;51.128;4.220;2022-08-06T08:36:40;20.20;96.50
41324;DHT22;27073;51.128;4.220;2022-08-06T08:39:06;20.20;96.50
41324;DHT22;27073;51.128;4.220;2022-08-06T08:41:44;20.00;97.10
41324;DHT22;27073;51.128;4.220;2022-08-06T08:44:10;20.00;97.00
41324;DHT22;27073;51.128;4.220;2022-08-06T08:46:43;20.30;97.30
41324;DHT22;27073;51.128;4.220;2022-08-06T08:51:56;20.50;97.20
41324;DHT22;27073;51.128;4.220;2022-08-06T08:54:25;20.50;97.20
41324;DHT22;27073;51.128;4.220;2022-08-06T08:56:53;20.30;95.80
41324;DHT22;27073;51.128;4.220;2022-08-06T08:59:20;20.10;96.40
41324;DHT22;27073;51.128;4.220;2022-08-06T09:01:46;20.30;96.10
41324;DHT22;27073;51.128;4.220;2022-08-06T09:04:13;20.50;96.60
41324;DHT22;27073;51.128;4.220;2022-08-06T09:06:39;20.60;95.70
41324;DHT22;27073;51.128;4.220;2022-08-06T09:09:06;20.70;95.20
41324;DHT22;27073;51.128;4.220;2022-08-06T09:11:33;20.80;94.50
41324;DHT22;27073;51.128;4.220;2022-08-06T09:14:00;20.80;95.20
41324;DHT22;27073;51.128;4.220;2022-08-06T09:16:28;20.80;95.10
41324;DHT22;27073;51.128;4.220;2022-08-06T09:18:55;20.70;95.20
41324;DHT22;27073;51.128;4.220;2022-08-06T09:21:20;20.90;95.60
41324;DHT22;27073;51.128;4.220;2022-08-06T09:23:46;21.00;95.30
41324;DHT22;27073;51.128;4.220;2022-08-06T09:26:12;21.00;95.10
41324;DHT22;27073;51.128;4.220;2022-08-06T09:28:41;20.90;94.70
41324;DHT22;27073;51.128;4.220;2022-08-06T09:31:09;20.70;95.60
41324;DHT22;27073;51.128;4.220;2022-08-06T09:33:37;20.80;95.10
41324;DHT22;27073;51.128;4.220;2022-08-06T09:36:07;21.00;95.90
41324;DHT22;27073;51.128;4.220;2022-08-06T09:38:44;21.20;95.30
41324;DHT22;27073;51.128;4.220;2022-08-06T09:41:11;21.20;95.50
41324;DHT22;27073;51.128;4.220;2022-08-06T09:43:38;21.20;94.90
41324;DHT22;27073;51.128;4.220;2022-08-06T09:46:05;21.20;94.90
41324;DHT22;27073;51.128;4.220;2022-08-06T09:48:32;20.90;95.10
41324;DHT22;27073;51.128;4.220;2022-08-06T09:50:59;20.90;95.10
41324;DHT22;27073;51.128;4.220;2022-08-06T09:53:26;21.00;93.90
41324;DHT22;27073;51.128;4.220;2022-08-06T09:55:54;21.10;93.90
41324;DHT22;27073;51.128;4.220;2022-08-06T09:58:35;21.20;93.80
41324;DHT22;27073;51.128;4.220;2022-08-06T10:01:19;21.10;93.90
41324;DHT22;27073;51.128;4.220;2022-08-06T10:03:47;21.10;93.70
41324;DHT22;27073;51.128;4.220;2022-08-06T10:06:18;21.10;93.30
41324;DHT22;27073;51.128;4.220;2022-08-06T10:09:08;21.20;93.60
41324;DHT22;27073;51.128;4.220;2022-08-06T10:11:37;21.10;93.10
41324;DHT22;27073;51.128;4.220;2022-08-06T10:14:03;21.10;93.90
41324;DHT22;27073;51.128;4.220;2022-08-06T10:16:29;21.10;92.80
41324;DHT22;27073;51.128;4.220;2022-08-06T10:18:57;21.30;92.10
41324;DHT22;27073;51.128;4.220;2022-08-06T10:21:32;21.50;92.70
41324;DHT22;27073;51.128;4.220;2022-08-06T10:24:01;21.70;93.30
41324;DHT22;27073;51.128;4.220;2022-08-06T10:26:29;21.90;93.20
41324;DHT22;27073;51.128;4.220;2022-08-06T10:29:05;21.90;92.40
41324;DHT22;27073;51.128;4.220;2022-08-06T10:31:32;21.60;91.80
41324;DHT22;27073;51.128;4.220;2022-08-06T10:34:19;21.70;90.90
41324;DHT22;27073;51.128;4.220;2022-08-06T10:36:57;21.70;91.00
41324;DHT22;27073;51.128;4.220;2022-08-06T10:39:30;21.80;91.80
41324;DHT22;27073;51.128;4.220;2022-08-06T10:42:00;21.70;91.90
41324;DHT22;27073;51.128;4.220;2022-08-06T10:44:27;22.00;92.00
41324;DHT22;27073;51.128;4.220;2022-08-06T10:46:53;22.30;91.90
41324;DHT22;27073;51.128;4.220;2022-08-06T10:49:20;22.20;92.40
41324;DHT22;27073;51.128;4.220;2022-08-06T10:51:47;22.50;90.90
41324;DHT22;27073;51.128;4.220;2022-08-06T10:54:15;22.50;90.20
41324;DHT22;27073;51.128;4.220;2022-08-06T10:56:41;22.70;89.80
41324;DHT22;27073;51.128;4.220;2022-08-06T10:59:07;22.80;90.00
41324;DHT22;27073;51.128;4.220;2022-08-06T11:04:58;23.10;90.80
41324;DHT22;27073;51.128;4.220;2022-08-06T11:12:54;23.20;90.00
41324;DHT22;27073;51.128;4.220;2022-08-06T11:15:22;23.40;90.20
41324;DHT22;27073;51.128;4.220;2022-08-06T11:17:51;23.40;90.00
41324;DHT22;27073;51.128;4.220;2022-08-06T11:28:13;23.10;89.20
41324;DHT22;27073;51.128;4.220;2022-08-06T11:30:44;23.20;90.00
41324;DHT22;27073;51.128;4.220;2022-08-06T11:33:12;23.30;89.60
41324;DHT22;27073;51.128;4.220;2022-08-06T11:35:42;23.40;89.00
41324;DHT22;27073;51.128;4.220;2022-08-06T11:38:13;23.30;88.00
41324;DHT22;27073;51.128;4.220;2022-08-06T11:40:59;23.60;87.30
41324;DHT22;27073;51.128;4.220;2022-08-06T11:54:21;23.00;86.70
41324;DHT22;27073;51.128;4.220;2022-08-06T12:08:16;24.50;87.00
41324;DHT22;27073;51.128;4.220;2022-08-06T12:11:23;24.60;85.60
41324;DHT22;27073;51.128;4.220;2022-08-06T12:13:49;25.00;85.50
41324;DHT22;27073;51.128;4.220;2022-08-06T12:16:44;25.20;83.30
41324;DHT22;27073;51.128;4.220;2022-08-06T12:19:14;25.10;84.70
41324;DHT22;27073;51.128;4.220;2022-08-06T12:21:40;25.00;84.10
41324;DHT22;27073;51.128;4.220;2022-08-06T12:24:08;24.90;84.80
41324;DHT22;27073;51.128;4.220;2022-08-06T12:26:34;24.60;84.40
41324;DHT22;27073;51.128;4.220;2022-08-06T12:29:03;24.60;85.90
41324;DHT22;27073;51.128;4.220;2022-08-06T12:31:31;24.90;85.70
41324;DHT22;27073;51.128;4.220;2022-08-06T12:33:57;24.80;83.30
41324;DHT22;27073;51.128;4.220;2022-08-06T12:36:27;24.60;83.90
41324;DHT22;27073;51.128;4.220;2022-08-06T12:38:56;24.70;83.20
41324;DHT22;27073;51.128;4.220;2022-08-06T12:41:22;24.60;82.50
41324;DHT22;27073;51.128;4.220;2022-08-06T12:43:56;24.80;83.50
41324;DHT22;27073;51.128;4.220;2022-08-06T12:46:23;24.70;81.70
41324;DHT22;27073;51.128;4.220;2022-08-06T12:48:50;25.00;82.30
41324;DHT22;27073;51.128;4.220;2022-08-06T12:51:16;25.10;83.80
41324;DHT22;27073;51.128;4.220;2022-08-06T12:53:55;24.80;82.70
41324;DHT22;27073;51.128;4.220;2022-08-06T12:56:23;24.70;84.10
41324;DHT22;27073;51.128;4.220;2022-08-06T12:58:51;25.00;85.50
41324;DHT22;27073;51.128;4.220;2022-08-06T13:01:19;25.40;84.10
41324;DHT22;27073;51.128;4.220;2022-08-06T13:03:48;25.70;83.40
41324;DHT22;27073;51.128;4.220;2022-08-06T13:06:16;25.80;80.30
41324;DHT22;27073;51.128;4.220;2022-08-06T13:08:46;25.70;81.50
41324;DHT22;27073;51.128;4.220;2022-08-06T13:11:12;25.90;81.50
41324;DHT22;27073;51.128;4.220;2022-08-06T13:13:40;26.00;81.90
41324;DHT22;27073;51.128;4.220;2022-08-06T13:16:15;25.90;81.80
41324;DHT22;27073;51.128;4.220;2022-08-06T13:18:43;25.80;82.90
41324;DHT22;27073;51.128;4.220;2022-08-06T13:21:27;25.80;81.30
41324;DHT22;27073;51.128;4.220;2022-08-06T13:23:53;26.20;82.20
41324;DHT22;27073;51.128;4.220;2022-08-06T13:26:21;26.30;81.90
41324;DHT22;27073;51.128;4.220;2022-08-06T13:31:35;26.30;81.30
41324;DHT22;27073;51.128;4.220;2022-08-06T13:34:07;26.00;81.10
41324;DHT22;27073;51.128;4.220;2022-08-06T13:36:35;25.70;81.90
41324;DHT22;27073;51.128;4.220;2022-08-06T13:39:22;25.70;81.60
41324;DHT22;27073;51.128;4.220;2022-08-06T13:42:03;25.60;80.50
41324;DHT22;27073;51.128;4.220;2022-08-06T13:44:40;25.40;81.80
41324;DHT22;27073;51.128;4.220;2022-08-06T13:47:07;25.50;82.50
41324;DHT22;27073;51.128;4.220;2022-08-06T13:49:34;25.70;82.20
41324;DHT22;27073;51.128;4.220;2022-08-06T13:52:01;25.80;81.70
41324;DHT22;27073;51.128;4.220;2022-08-06T13:54:27;26.00;81.10
41324;DHT22;27073;51.128;4.220;2022-08-06T13:56:55;26.10;81.50
41324;DHT22;27073;51.128;4.220;2022-08-06T13:59:22;25.80;80.50
41324;DHT22;27073;51.128;4.220;2022-08-06T14:01:48;25.70;82.20
41324;DHT22;27073;51.128;4.220;2022-08-06T14:04:18;25.90;81.90
41324;DHT22;27073;51.128;4.220;2022-08-06T14:06:46;26.00;80.90
41324;DHT22;27073;51.128;4.220;2022-08-06T14:09:13;26.10;81.20
41324;DHT22;27073;51.128;4.220;2022-08-06T14:11:39;26.20;81.10
41324;DHT22;27073;51.128;4.220;2022-08-06T14:14:05;27.00;81.40
41324;DHT22;27073;51.128;4.220;2022-08-06T14:16:31;27.90;80.80
41324;DHT22;27073;51.128;4.220;2022-08-06T14:18:56;29.40;77.50
41324;DHT22;27073;51.128;4.220;2022-08-06T14:21:23;30.40;76.80
41324;DHT22;27073;51.128;4.220;2022-08-06T14:23:49;29.00;76.10
41324;DHT22;27073;51.128;4.220;2022-08-06T14:26:14;27.90;77.10
41324;DHT22;27073;51.128;4.220;2022-08-06T14:28:40;27.30;77.90
41324;DHT22;27073;51.128;4.220;2022-08-06T14:31:06;26.90;78.10
41324;DHT22;27073;51.128;4.220;2022-08-06T14:33:32;26.80;78.90
41324;DHT22;27073;51.128;4.220;2022-08-06T14:35:57;26.70;79.20
41324;DHT22;27073;51.128;4.220;2022-08-06T14:38:23;26.50;79.40
41324;DHT22;27073;51.128;4.220;2022-08-06T14:40:49;26.60;79.90
41324;DHT22;27073;51.128;4.220;2022-08-06T14:43:35;28.20;77.00
41324;DHT22;27073;51.128;4.220;2022-08-06T14:46:20;29.80;75.70
41324;DHT22;27073;51.128;4.220;2022-08-06T14:48:45;31.10;75.10
41324;DHT22;27073;51.128;4.220;2022-08-06T14:51:11;32.20;72.90
41324;DHT22;27073;51.128;4.220;2022-08-06T14:53:37;32.10;71.50
41324;DHT22;27073;51.128;4.220;2022-08-06T14:56:03;31.60;71.70
41324;DHT22;27073;51.128;4.220;2022-08-06T14:58:29;31.60;71.30
41324;DHT22;27073;51.128;4.220;2022-08-06T15:00:55;31.40;71.70
41324;DHT22;27073;51.128;4.220;2022-08-06T15:03:21;32.90;70.80
41324;DHT22;27073;51.128;4.220;2022-08-06T15:05:47;33.60;69.70
41324;DHT22;27073;51.128;4.220;2022-08-06T15:08:13;34.70;67.50
41324;DHT22;27073;51.128;4.220;2022-08-06T15:10:39;34.60;67.30
41324;DHT22;27073;51.128;4.220;2022-08-06T15:13:05;35.30;65.40
41324;DHT22;27073;51.128;4.220;2022-08-06T15:15:32;36.10;64.80
41324;DHT22;27073;51.128;4.220;2022-08-06T15:17:58;35.00;62.80
41324;DHT22;27073;51.128;4.220;2022-08-06T15:20:24;34.50;64.10
41324;DHT22;27073;51.128;4.220;2022-08-06T15:22:50;34.30;64.40
41324;DHT22;27073;51.128;4.220;2022-08-06T15:25:15;33.30;64.30
41324;DHT22;27073;51.128;4.220;2022-08-06T15:27:44;31.60;63.90
41324;DHT22;27073;51.128;4.220;2022-08-06T15:30:11;30.90;64.00
41324;DHT22;27073;51.128;4.220;2022-08-06T15:32:37;30.20;65.40
41324;DHT22;27073;51.128;4.220;2022-08-06T15:35:03;29.50;66.20
41324;DHT22;27073;51.128;4.220;2022-08-06T15:37:29;30.40;66.30
41324;DHT22;27073;51.128;4.220;2022-08-06T15:39:55;31.60;65.90
41324;DHT22;27073;51.128;4.220;2022-08-06T15:42:21;32.70;65.80
41324;DHT22;27073;51.128;4.220;2022-08-06T15:44:47;33.40;64.10
41324;DHT22;27073;51.128;4.220;2022-08-06T15:47:13;34.00;64.00
41324;DHT22;27073;51.128;4.220;2022-08-06T15:49:38;34.60;64.10
41324;DHT22;27073;51.128;4.220;2022-08-06T15:52:04;35.10;63.00
41324;DHT22;27073;51.128;4.220;2022-08-06T15:54:30;35.50;62.30
41324;DHT22;27073;51.128;4.220;2022-08-06T15:56:56;36.00;61.10
41324;DHT22;27073;51.128;4.220;2022-08-06T15:59:21;34.30;61.20
41324;DHT22;27073;51.128;4.220;2022-08-06T16:01:48;33.10;62.20
41324;DHT22;27073;51.128;4.220;2022-08-06T16:04:14;31.90;63.10
41324;DHT22;27073;51.128;4.220;2022-08-06T16:06:40;31.00;63.40
41324;DHT22;27073;51.128;4.220;2022-08-06T16:09:05;30.30;63.90
41324;DHT22;27073;51.128;4.220;2022-08-06T16:11:31;29.80;64.30
41324;DHT22;27073;51.128;4.220;2022-08-06T16:13:57;29.30;64.10
41324;DHT22;27073;51.128;4.220;2022-08-06T16:16:23;28.90;64.50
41324;DHT22;27073;51.128;4.220;2022-08-06T16:18:49;28.90;65.00
41324;DHT22;27073;51.128;4.220;2022-08-06T16:21:14;29.40;64.40
41324;DHT22;27073;51.128;4.220;2022-08-06T16:23:40;29.00;64.30
41324;DHT22;27073;51.128;4.220;2022-08-06T16:26:06;29.40;64.30
41324;DHT22;27073;51.128;4.220;2022-08-06T16:28:32;29.40;64.40
41324;DHT22;27073;51.128;4.220;2022-08-06T16:30:58;30.20;65.20
41324;DHT22;27073;51.128;4.220;2022-08-06T16:33:23;31.60;63.90
41324;DHT22;27073;51.128;4.220;2022-08-06T16:35:49;31.80;62.90
41324;DHT22;27073;51.128;4.220;2022-08-06T16:38:16;31.90;63.40
41324;DHT22;27073;51.128;4.220;2022-08-06T16:40:43;32.50;63.00
41324;DHT22;27073;51.128;4.220;2022-08-06T16:43:08;32.60;61.70
41324;DHT22;27073;51.128;4.220;2022-08-06T16:45:34;32.70;62.70
41324;DHT22;27073;51.128;4.220;2022-08-06T16:48:00;33.40;61.90
41324;DHT22;27073;51.128;4.220;2022-08-06T16:50:26;32.30;61.40
41324;DHT22;27073;51.128;4.220;2022-08-06T16:52:52;31.60;62.30